Main page
METAR-TAF:

METAR-TAF

Airports :

Amman, Jordan

Amman Civil Airport

latitude: 31-59N, longitude: 035-59E, elevation: 767 m

Current weather observation

The report was made 31 minutes ago, at 19:00 UTC
Wind 3 kt from the East
Temperature 13°C
Humidity 41%
Pressure 1023 hPa
Visibility: 5000 m
haze

METAR: OJAM 171900Z 09003KT 5000 HZ NSC 13/00 Q1023 NOSIG

Time: 21:31 (19:31 UTC)

Forecast

The report was made 2 hours and 31 minutes ago, at 17:00 UTC
Forecast valid from 17 at 18 UTC to 18 at 24 UTC
Wind 6 kt from the Southeast
Visibility: 5000 m
Few clouds at a height of 10000 ft
haze
Becoming
from 17 at 20 UTC to 17 at 22 UTC
Scattered clouds at a height of 10000 ft
Temporary
from 18 at 02 UTC to 18 at 06 UTC
Wind 2 kt from variable directions
Visibility: 3000 m
smoke

TAF: OJAM 171700Z 1718/1824 14006KT 5000 HZ FEW100 BECMG 1720/1722 SCT100 TEMPO 1802/1806 VRB02KT 3000 FU

Weather observations and forecasts of more than 4000 airports (METAR and TAF reports).

The available stations are represented by yellow and red dots on the map.

Hover mouse over dot to see the name of the station.

Then click to see weather observations and forecasts.

To change the map : click on the green buttons with a black cross to zoom in, on the green button with a dash to zoom out, or on the green arrows for adjacent maps.


METAR-TAF: